sensor_id;sensor_type;location;lat;lon;timestamp;pressure;altitude;pressure_sealevel;temperature;humidity
71109;BME280;59614;51.012;-1.648;2022-12-29T00:02:01;98660.63;;;7.64;100.00
71109;BME280;59614;51.012;-1.648;2022-12-29T00:04:26;98657.75;;;7.72;100.00
71109;BME280;59614;51.012;-1.648;2022-12-29T00:06:52;98661.19;;;7.74;100.00
71109;BME280;59614;51.012;-1.648;2022-12-29T00:09:17;98659.31;;;7.78;100.00
71109;BME280;59614;51.012;-1.648;2022-12-29T00:11:43;98662.50;;;7.61;100.00
71109;BME280;59614;51.012;-1.648;2022-12-29T00:14:08;98668.88;;;7.53;100.00
71109;BME280;59614;51.012;-1.648;2022-12-29T00:16:52;98668.13;;;7.48;100.00
71109;BME280;59614;51.012;-1.648;2022-12-29T00:19:18;98673.34;;;7.50;100.00
71109;BME280;59614;51.012;-1.648;2022-12-29T00:22:01;98669.94;;;7.46;100.00
71109;BME280;59614;51.012;-1.648;2022-12-29T00:24:45;98669.13;;;7.44;100.00
71109;BME280;59614;51.012;-1.648;2022-12-29T00:27:26;98660.34;;;7.45;100.00
71109;BME280;59614;51.012;-1.648;2022-12-29T00:30:11;98660.47;;;7.42;100.00
71109;BME280;59614;51.012;-1.648;2022-12-29T00:32:57;98655.41;;;7.36;100.00
71109;BME280;59614;51.012;-1.648;2022-12-29T00:35:45;98657.34;;;7.31;100.00
71109;BME280;59614;51.012;-1.648;2022-12-29T00:38:11;98654.19;;;7.19;100.00
71109;BME280;59614;51.012;-1.648;2022-12-29T00:40:56;98647.25;;;7.17;100.00
71109;BME280;59614;51.012;-1.648;2022-12-29T00:43:40;98645.44;;;7.19;100.00
71109;BME280;59614;51.012;-1.648;2022-12-29T00:46:24;98643.03;;;7.13;100.00
71109;BME280;59614;51.012;-1.648;2022-12-29T00:48:49;98642.25;;;7.09;100.00
71109;BME280;59614;51.012;-1.648;2022-12-29T00:51:33;98636.44;;;6.99;100.00
71109;BME280;59614;51.012;-1.648;2022-12-29T00:53:59;98643.53;;;6.95;100.00
71109;BME280;59614;51.012;-1.648;2022-12-29T00:56:24;98636.72;;;6.90;100.00
71109;BME280;59614;51.012;-1.648;2022-12-29T00:58:49;98635.69;;;6.95;100.00
71109;BME280;59614;51.012;-1.648;2022-12-29T01:01:15;98648.88;;;6.92;100.00
71109;BME280;59614;51.012;-1.648;2022-12-29T01:03:40;98646.53;;;6.83;100.00
71109;BME280;59614;51.012;-1.648;2022-12-29T01:06:06;98647.28;;;6.87;100.00
71109;BME280;59614;51.012;-1.648;2022-12-29T01:08:32;98652.81;;;6.77;100.00
71109;BME280;59614;51.012;-1.648;2022-12-29T01:11:04;98642.13;;;6.84;100.00
71109;BME280;59614;51.012;-1.648;2022-12-29T01:13:30;98638.59;;;6.86;100.00
71109;BME280;59614;51.012;-1.648;2022-12-29T01:15:56;98632.31;;;6.90;100.00
71109;BME280;59614;51.012;-1.648;2022-12-29T01:18:21;98627.97;;;6.89;100.00
71109;BME280;59614;51.012;-1.648;2022-12-29T01:20:47;98627.06;;;6.90;100.00
71109;BME280;59614;51.012;-1.648;2022-12-29T01:23:12;98620.31;;;6.83;100.00
71109;BME280;59614;51.012;-1.648;2022-12-29T01:25:38;98623.47;;;6.94;100.00
71109;BME280;59614;51.012;-1.648;2022-12-29T01:28:03;98623.41;;;6.96;100.00
71109;BME280;59614;51.012;-1.648;2022-12-29T01:30:28;98624.13;;;7.01;100.00
71109;BME280;59614;51.012;-1.648;2022-12-29T01:32:54;98616.94;;;7.08;100.00
71109;BME280;59614;51.012;-1.648;2022-12-29T01:35:19;98602.72;;;7.15;100.00
71109;BME280;59614;51.012;-1.648;2022-12-29T01:37:44;98612.88;;;7.26;100.00
71109;BME280;59614;51.012;-1.648;2022-12-29T01:40:10;98611.19;;;7.23;100.00
71109;BME280;59614;51.012;-1.648;2022-12-29T01:42:35;98619.25;;;7.17;100.00
71109;BME280;59614;51.012;-1.648;2022-12-29T01:45:13;98624.16;;;7.28;100.00
71109;BME280;59614;51.012;-1.648;2022-12-29T01:47:40;98625.63;;;7.37;100.00
71109;BME280;59614;51.012;-1.648;2022-12-29T01:53:12;98614.66;;;7.51;100.00
71109;BME280;59614;51.012;-1.648;2022-12-29T01:55:38;98611.88;;;7.55;100.00
71109;BME280;59614;51.012;-1.648;2022-12-29T01:58:05;98613.75;;;7.53;100.00
71109;BME280;59614;51.012;-1.648;2022-12-29T02:00:31;98614.53;;;7.55;100.00
71109;BME280;59614;51.012;-1.648;2022-12-29T02:02:57;98603.81;;;7.62;100.00
71109;BME280;59614;51.012;-1.648;2022-12-29T02:08:06;98580.59;;;7.76;100.00
71109;BME280;59614;51.012;-1.648;2022-12-29T02:10:32;98584.66;;;7.85;100.00
71109;BME280;59614;51.012;-1.648;2022-12-29T02:12:58;98583.69;;;7.87;100.00
71109;BME280;59614;51.012;-1.648;2022-12-29T02:15:27;98581.28;;;7.81;100.00
71109;BME280;59614;51.012;-1.648;2022-12-29T02:18:15;98592.25;;;7.93;99.96
71109;BME280;59614;51.012;-1.648;2022-12-29T02:26:33;98586.03;;;7.95;99.16
71109;BME280;59614;51.012;-1.648;2022-12-29T02:32:00;98579.78;;;7.99;99.43
71109;BME280;59614;51.012;-1.648;2022-12-29T02:47:27;98585.25;;;8.17;99.03
71109;BME280;59614;51.012;-1.648;2022-12-29T02:50:00;98575.63;;;8.17;99.38
71109;BME280;59614;51.012;-1.648;2022-12-29T02:52:31;98574.06;;;8.12;100.00
71109;BME280;59614;51.012;-1.648;2022-12-29T02:54:58;98559.13;;;8.14;99.66
71109;BME280;59614;51.012;-1.648;2022-12-29T02:59:54;98555.72;;;8.34;99.54
71109;BME280;59614;51.012;-1.648;2022-12-29T03:02:39;98552.59;;;8.24;99.24
71109;BME280;59614;51.012;-1.648;2022-12-29T03:13:17;98560.84;;;8.15;100.00
71109;BME280;59614;51.012;-1.648;2022-12-29T03:21:13;98570.09;;;8.00;100.00
71109;BME280;59614;51.012;-1.648;2022-12-29T03:23:40;98571.16;;;7.96;100.00
71109;BME280;59614;51.012;-1.648;2022-12-29T03:26:08;98593.53;;;8.06;100.00
71109;BME280;59614;51.012;-1.648;2022-12-29T03:28:38;98596.44;;;7.98;100.00
71109;BME280;59614;51.012;-1.648;2022-12-29T03:31:05;98585.31;;;8.15;100.00
71109;BME280;59614;51.012;-1.648;2022-12-29T03:33:31;98597.78;;;8.10;100.00
71109;BME280;59614;51.012;-1.648;2022-12-29T03:35:59;98604.72;;;8.11;100.00
71109;BME280;59614;51.012;-1.648;2022-12-29T03:41:11;98620.03;;;8.00;100.00
71109;BME280;59614;51.012;-1.648;2022-12-29T03:43:38;98621.88;;;7.98;100.00
71109;BME280;59614;51.012;-1.648;2022-12-29T03:46:03;98624.53;;;7.96;100.00
71109;BME280;59614;51.012;-1.648;2022-12-29T03:48:28;98647.91;;;8.04;100.00
71109;BME280;59614;51.012;-1.648;2022-12-29T03:50:54;98646.19;;;8.03;100.00
71109;BME280;59614;51.012;-1.648;2022-12-29T03:53:19;98650.47;;;8.06;100.00
71109;BME280;59614;51.012;-1.648;2022-12-29T03:55:44;98648.50;;;8.12;100.00
71109;BME280;59614;51.012;-1.648;2022-12-29T03:58:10;98651.34;;;8.06;100.00
71109;BME280;59614;51.012;-1.648;2022-12-29T04:00:35;98654.88;;;8.05;100.00
71109;BME280;59614;51.012;-1.648;2022-12-29T04:03:00;98663.69;;;8.04;100.00
71109;BME280;59614;51.012;-1.648;2022-12-29T04:05:26;98656.78;;;8.01;100.00
71109;BME280;59614;51.012;-1.648;2022-12-29T04:07:51;98651.44;;;8.03;100.00
71109;BME280;59614;51.012;-1.648;2022-12-29T04:10:16;98658.50;;;8.02;100.00
71109;BME280;59614;51.012;-1.648;2022-12-29T04:12:42;98665.56;;;8.00;100.00
71109;BME280;59614;51.012;-1.648;2022-12-29T04:15:07;98662.19;;;7.97;100.00
71109;BME280;59614;51.012;-1.648;2022-12-29T04:17:33;98670.88;;;7.99;100.00
71109;BME280;59614;51.012;-1.648;2022-12-29T04:19:58;98686.50;;;8.02;100.00
71109;BME280;59614;51.012;-1.648;2022-12-29T04:22:43;98694.72;;;7.93;100.00
71109;BME280;59614;51.012;-1.648;2022-12-29T04:25:09;98700.78;;;7.95;100.00
71109;BME280;59614;51.012;-1.648;2022-12-29T04:27:34;98700.13;;;7.88;100.00
71109;BME280;59614;51.012;-1.648;2022-12-29T04:29:59;98703.59;;;7.88;100.00
71109;BME280;59614;51.012;-1.648;2022-12-29T04:32:24;98711.47;;;7.88;100.00
71109;BME280;59614;51.012;-1.648;2022-12-29T04:34:50;98715.06;;;7.86;100.00
71109;BME280;59614;51.012;-1.648;2022-12-29T04:37:15;98725.94;;;7.75;100.00
71109;BME280;59614;51.012;-1.648;2022-12-29T04:39:40;98737.09;;;7.82;100.00
71109;BME280;59614;51.012;-1.648;2022-12-29T04:42:05;98740.78;;;7.76;100.00
71109;BME280;59614;51.012;-1.648;2022-12-29T04:44:31;98744.66;;;7.64;100.00
71109;BME280;59614;51.012;-1.648;2022-12-29T04:46:56;98761.28;;;7.65;100.00
71109;BME280;59614;51.012;-1.648;2022-12-29T04:49:21;98770.16;;;7.61;100.00
71109;BME280;59614;51.012;-1.648;2022-12-29T04:51:47;98781.59;;;7.58;100.00
71109;BME280;59614;51.012;-1.648;2022-12-29T04:54:12;98791.91;;;7.64;100.00
71109;BME280;59614;51.012;-1.648;2022-12-29T04:56:37;98801.44;;;7.68;100.00
71109;BME280;59614;51.012;-1.648;2022-12-29T04:59:02;98813.69;;;7.68;100.00
71109;BME280;59614;51.012;-1.648;2022-12-29T05:01:28;98816.38;;;7.66;100.00
71109;BME280;59614;51.012;-1.648;2022-12-29T05:03:53;98821.56;;;7.68;100.00
71109;BME280;59614;51.012;-1.648;2022-12-29T05:06:18;98834.59;;;7.71;100.00
71109;BME280;59614;51.012;-1.648;2022-12-29T05:08:44;98839.09;;;7.67;100.00
71109;BME280;59614;51.012;-1.648;2022-12-29T05:11:09;98845.31;;;7.63;100.00
71109;BME280;59614;51.012;-1.648;2022-12-29T05:13:35;98853.97;;;7.67;100.00
71109;BME280;59614;51.012;-1.648;2022-12-29T05:16:00;98864.75;;;7.57;100.00
71109;BME280;59614;51.012;-1.648;2022-12-29T05:18:25;98871.09;;;7.50;100.00
71109;BME280;59614;51.012;-1.648;2022-12-29T05:20:51;98881.50;;;7.53;100.00
71109;BME280;59614;51.012;-1.648;2022-12-29T05:23:16;98893.69;;;7.56;100.00
71109;BME280;59614;51.012;-1.648;2022-12-29T05:25:42;98900.78;;;7.52;100.00
71109;BME280;59614;51.012;-1.648;2022-12-29T05:28:07;98902.72;;;7.46;100.00
71109;BME280;59614;51.012;-1.648;2022-12-29T05:30:33;98919.31;;;7.48;100.00
71109;BME280;59614;51.012;-1.648;2022-12-29T05:32:58;98926.38;;;7.44;100.00
71109;BME280;59614;51.012;-1.648;2022-12-29T05:35:23;98935.41;;;7.34;100.00
71109;BME280;59614;51.012;-1.648;2022-12-29T05:37:49;98949.78;;;7.20;100.00
71109;BME280;59614;51.012;-1.648;2022-12-29T05:40:14;98957.66;;;7.20;100.00
71109;BME280;59614;51.012;-1.648;2022-12-29T05:42:39;98963.00;;;7.16;100.00
71109;BME280;59614;51.012;-1.648;2022-12-29T05:45:05;98958.72;;;7.13;100.00
71109;BME280;59614;51.012;-1.648;2022-12-29T05:47:32;98970.06;;;7.14;100.00
71109;BME280;59614;51.012;-1.648;2022-12-29T05:49:57;98982.50;;;7.07;100.00
71109;BME280;59614;51.012;-1.648;2022-12-29T05:52:22;98982.56;;;7.04;100.00
71109;BME280;59614;51.012;-1.648;2022-12-29T05:54:48;98997.69;;;6.92;100.00
71109;BME280;59614;51.012;-1.648;2022-12-29T05:57:13;99011.72;;;6.91;100.00
71109;BME280;59614;51.012;-1.648;2022-12-29T05:59:38;99018.56;;;6.97;100.00
71109;BME280;59614;51.012;-1.648;2022-12-29T06:02:04;99028.34;;;6.90;100.00
71109;BME280;59614;51.012;-1.648;2022-12-29T06:04:29;99025.50;;;7.00;100.00
71109;BME280;59614;51.012;-1.648;2022-12-29T06:06:54;99027.09;;;7.05;100.00
71109;BME280;59614;51.012;-1.648;2022-12-29T06:09:19;99028.22;;;6.95;100.00
71109;BME280;59614;51.012;-1.648;2022-12-29T06:11:45;99043.13;;;6.94;100.00
71109;BME280;59614;51.012;-1.648;2022-12-29T06:14:10;99038.00;;;6.88;100.00
71109;BME280;59614;51.012;-1.648;2022-12-29T06:16:35;99045.06;;;6.86;100.00
71109;BME280;59614;51.012;-1.648;2022-12-29T06:19:01;99051.31;;;6.80;100.00
71109;BME280;59614;51.012;-1.648;2022-12-29T06:21:26;99055.69;;;6.80;100.00
71109;BME280;59614;51.012;-1.648;2022-12-29T06:23:51;99061.81;;;6.79;100.00
71109;BME280;59614;51.012;-1.648;2022-12-29T06:26:17;99063.81;;;6.69;100.00
71109;BME280;59614;51.012;-1.648;2022-12-29T06:28:42;99064.59;;;6.73;100.00
71109;BME280;59614;51.012;-1.648;2022-12-29T06:31:10;99067.34;;;6.68;100.00
71109;BME280;59614;51.012;-1.648;2022-12-29T06:33:36;99071.75;;;6.66;100.00
71109;BME280;59614;51.012;-1.648;2022-12-29T06:36:01;99072.44;;;6.74;100.00
71109;BME280;59614;51.012;-1.648;2022-12-29T06:38:27;99073.47;;;6.67;100.00
71109;BME280;59614;51.012;-1.648;2022-12-29T06:40:52;99073.47;;;6.65;100.00
71109;BME280;59614;51.012;-1.648;2022-12-29T06:43:17;99072.56;;;6.68;100.00
71109;BME280;59614;51.012;-1.648;2022-12-29T06:45:43;99085.38;;;6.82;100.00
71109;BME280;59614;51.012;-1.648;2022-12-29T06:48:08;99082.81;;;6.79;100.00
71109;BME280;59614;51.012;-1.648;2022-12-29T06:50:33;99089.88;;;6.75;100.00
71109;BME280;59614;51.012;-1.648;2022-12-29T06:52:59;99098.72;;;6.71;100.00
71109;BME280;59614;51.012;-1.648;2022-12-29T06:55:24;99095.28;;;6.68;100.00
71109;BME280;59614;51.012;-1.648;2022-12-29T06:57:49;99088.31;;;6.68;100.00
71109;BME280;59614;51.012;-1.648;2022-12-29T07:00:14;99083.22;;;6.60;100.00
71109;BME280;59614;51.012;-1.648;2022-12-29T07:02:40;99087.56;;;6.61;100.00
71109;BME280;59614;51.012;-1.648;2022-12-29T07:05:05;99089.25;;;6.64;100.00
71109;BME280;59614;51.012;-1.648;2022-12-29T07:07:32;99097.91;;;6.68;100.00
71109;BME280;59614;51.012;-1.648;2022-12-29T07:09:57;99096.28;;;6.63;100.00
71109;BME280;59614;51.012;-1.648;2022-12-29T07:12:22;99094.66;;;6.56;100.00
71109;BME280;59614;51.012;-1.648;2022-12-29T07:14:48;99100.78;;;6.57;100.00
71109;BME280;59614;51.012;-1.648;2022-12-29T07:17:13;99098.06;;;6.61;100.00
71109;BME280;59614;51.012;-1.648;2022-12-29T07:19:38;99098.19;;;6.55;100.00
71109;BME280;59614;51.012;-1.648;2022-12-29T07:22:04;99101.69;;;6.54;100.00
71109;BME280;59614;51.012;-1.648;2022-12-29T07:24:29;99099.16;;;6.51;100.00
71109;BME280;59614;51.012;-1.648;2022-12-29T07:26:54;99101.78;;;6.51;100.00
71109;BME280;59614;51.012;-1.648;2022-12-29T07:29:20;99100.06;;;6.50;100.00
71109;BME280;59614;51.012;-1.648;2022-12-29T07:31:45;99105.28;;;6.50;100.00
71109;BME280;59614;51.012;-1.648;2022-12-29T07:34:10;99112.31;;;6.48;100.00
71109;BME280;59614;51.012;-1.648;2022-12-29T07:36:36;99109.81;;;6.42;100.00
71109;BME280;59614;51.012;-1.648;2022-12-29T07:39:01;99112.41;;;6.43;100.00
71109;BME280;59614;51.012;-1.648;2022-12-29T07:41:27;99103.72;;;6.41;100.00
71109;BME280;59614;51.012;-1.648;2022-12-29T07:43:52;99126.47;;;6.41;100.00
71109;BME280;59614;51.012;-1.648;2022-12-29T07:46:17;99133.28;;;6.48;100.00
71109;BME280;59614;51.012;-1.648;2022-12-29T07:48:43;99135.06;;;6.46;100.00
71109;BME280;59614;51.012;-1.648;2022-12-29T07:51:08;99154.25;;;6.48;100.00
71109;BME280;59614;51.012;-1.648;2022-12-29T07:53:34;99140.97;;;6.57;100.00
71109;BME280;59614;51.012;-1.648;2022-12-29T07:56:00;99153.97;;;6.63;100.00
71109;BME280;59614;51.012;-1.648;2022-12-29T07:58:25;99157.38;;;6.65;100.00
71109;BME280;59614;51.012;-1.648;2022-12-29T08:00:56;99161.69;;;6.70;100.00
71109;BME280;59614;51.012;-1.648;2022-12-29T08:03:22;99160.09;;;6.62;100.00
71109;BME280;59614;51.012;-1.648;2022-12-29T08:05:47;99169.63;;;6.65;100.00
71109;BME280;59614;51.012;-1.648;2022-12-29T08:08:13;99166.09;;;6.68;100.00
71109;BME280;59614;51.012;-1.648;2022-12-29T08:10:38;99164.31;;;6.70;100.00
71109;BME280;59614;51.012;-1.648;2022-12-29T08:13:03;99184.38;;;6.71;100.00
71109;BME280;59614;51.012;-1.648;2022-12-29T08:15:29;99191.50;;;6.64;100.00
71109;BME280;59614;51.012;-1.648;2022-12-29T08:17:54;99189.72;;;6.64;100.00
71109;BME280;59614;51.012;-1.648;2022-12-29T08:20:19;99198.44;;;6.68;100.00
71109;BME280;59614;51.012;-1.648;2022-12-29T08:22:44;99201.16;;;6.63;100.00
71109;BME280;59614;51.012;-1.648;2022-12-29T08:25:10;99213.41;;;6.61;100.00
71109;BME280;59614;51.012;-1.648;2022-12-29T08:27:35;99226.44;;;6.66;100.00
71109;BME280;59614;51.012;-1.648;2022-12-29T08:30:00;99229.16;;;6.61;100.00
71109;BME280;59614;51.012;-1.648;2022-12-29T08:32:26;99237.94;;;6.57;100.00
71109;BME280;59614;51.012;-1.648;2022-12-29T08:34:53;99237.25;;;6.47;100.00
71109;BME280;59614;51.012;-1.648;2022-12-29T08:37:18;99237.34;;;6.44;100.00
71109;BME280;59614;51.012;-1.648;2022-12-29T08:39:44;99229.66;;;6.35;100.00
71109;BME280;59614;51.012;-1.648;2022-12-29T08:42:09;99239.22;;;6.36;100.00
71109;BME280;59614;51.012;-1.648;2022-12-29T08:44:34;99249.63;;;6.41;100.00
71109;BME280;59614;51.012;-1.648;2022-12-29T08:46:59;99253.16;;;6.40;100.00
71109;BME280;59614;51.012;-1.648;2022-12-29T08:49:25;99253.88;;;6.48;100.00
71109;BME280;59614;51.012;-1.648;2022-12-29T08:51:50;99253.94;;;6.43;100.00
71109;BME280;59614;51.012;-1.648;2022-12-29T08:54:16;99252.84;;;6.55;100.00
71109;BME280;59614;51.012;-1.648;2022-12-29T08:56:41;99260.47;;;6.68;100.00
71109;BME280;59614;51.012;-1.648;2022-12-29T08:59:06;99256.06;;;6.70;100.00
71109;BME280;59614;51.012;-1.648;2022-12-29T09:01:31;99254.16;;;6.78;100.00
71109;BME280;59614;51.012;-1.648;2022-12-29T09:03:58;99271.53;;;6.84;100.00
71109;BME280;59614;51.012;-1.648;2022-12-29T09:06:23;99274.19;;;6.82;100.00
71109;BME280;59614;51.012;-1.648;2022-12-29T09:08:49;99282.34;;;6.68;100.00
71109;BME280;59614;51.012;-1.648;2022-12-29T09:11:21;99292.06;;;6.61;100.00
71109;BME280;59614;51.012;-1.648;2022-12-29T09:13:47;99289.53;;;6.55;100.00
71109;BME280;59614;51.012;-1.648;2022-12-29T09:16:12;99291.38;;;6.52;100.00
71109;BME280;59614;51.012;-1.648;2022-12-29T09:18:38;99297.50;;;6.52;100.00
71109;BME280;59614;51.012;-1.648;2022-12-29T09:21:04;99308.78;;;6.54;100.00
71109;BME280;59614;51.012;-1.648;2022-12-29T09:23:30;99316.50;;;6.63;99.37
71109;BME280;59614;51.012;-1.648;2022-12-29T09:25:55;99313.75;;;6.70;99.45
71109;BME280;59614;51.012;-1.648;2022-12-29T09:28:21;99322.34;;;6.79;99.56
71109;BME280;59614;51.012;-1.648;2022-12-29T09:30:47;99324.88;;;6.83;98.19
71109;BME280;59614;51.012;-1.648;2022-12-29T09:33:12;99325.19;;;7.13;99.44
71109;BME280;59614;51.012;-1.648;2022-12-29T09:35:41;99338.16;;;7.20;97.23
71109;BME280;59614;51.012;-1.648;2022-12-29T09:38:06;99325.78;;;7.25;97.11
71109;BME280;59614;51.012;-1.648;2022-12-29T09:40:32;99334.56;;;7.26;96.76
71109;BME280;59614;51.012;-1.648;2022-12-29T09:47:59;99346.69;;;7.32;96.30
71109;BME280;59614;51.012;-1.648;2022-12-29T09:50:27;99344.44;;;7.11;95.99
71109;BME280;59614;51.012;-1.648;2022-12-29T09:53:05;99341.31;;;6.92;96.33
71109;BME280;59614;51.012;-1.648;2022-12-29T09:55:37;99350.97;;;6.90;97.14
71109;BME280;59614;51.012;-1.648;2022-12-29T09:58:27;99349.97;;;6.98;97.50
71109;BME280;59614;51.012;-1.648;2022-12-29T10:03:32;99357.22;;;6.83;95.71
71109;BME280;59614;51.012;-1.648;2022-12-29T10:08:47;99362.44;;;6.86;95.30
71109;BME280;59614;51.012;-1.648;2022-12-29T10:13:58;99366.69;;;6.90;94.46
71109;BME280;59614;51.012;-1.648;2022-12-29T10:16:39;99383.91;;;7.07;94.12
71109;BME280;59614;51.012;-1.648;2022-12-29T10:19:16;99393.50;;;7.08;94.42
71109;BME280;59614;51.012;-1.648;2022-12-29T10:21:53;99385.78;;;7.00;94.27
71109;BME280;59614;51.012;-1.648;2022-12-29T10:24:22;99390.94;;;7.05;94.42
71109;BME280;59614;51.012;-1.648;2022-12-29T10:26:50;99396.06;;;7.11;93.43
71109;BME280;59614;51.012;-1.648;2022-12-29T10:31:49;99404.94;;;7.04;92.36
71109;BME280;59614;51.012;-1.648;2022-12-29T10:34:20;99408.31;;;7.10;92.35
71109;BME280;59614;51.012;-1.648;2022-12-29T10:36:47;99417.94;;;7.10;91.75
71109;BME280;59614;51.012;-1.648;2022-12-29T10:41:40;99429.75;;;7.33;91.14
71109;BME280;59614;51.012;-1.648;2022-12-29T10:44:07;99420.94;;;7.37;91.15
71109;BME280;59614;51.012;-1.648;2022-12-29T10:46:35;99421.44;;;7.54;90.49
71109;BME280;59614;51.012;-1.648;2022-12-29T10:49:01;99415.00;;;7.71;91.96
71109;BME280;59614;51.012;-1.648;2022-12-29T10:51:30;99417.81;;;7.62;90.96
71109;BME280;59614;51.012;-1.648;2022-12-29T10:54:06;99413.41;;;7.64;92.20
71109;BME280;59614;51.012;-1.648;2022-12-29T10:59:10;99419.75;;;7.53;93.29
71109;BME280;59614;51.012;-1.648;2022-12-29T11:01:41;99419.16;;;7.39;91.14
71109;BME280;59614;51.012;-1.648;2022-12-29T11:04:17;99421.53;;;7.51;92.82
71109;BME280;59614;51.012;-1.648;2022-12-29T11:06:44;99410.84;;;7.61;92.40
71109;BME280;59614;51.012;-1.648;2022-12-29T11:11:35;99427.69;;;7.50;92.29
71109;BME280;59614;51.012;-1.648;2022-12-29T11:14:12;99425.94;;;7.49;92.45
71109;BME280;59614;51.012;-1.648;2022-12-29T11:16:38;99428.19;;;7.69;91.18
71109;BME280;59614;51.012;-1.648;2022-12-29T11:19:04;99435.06;;;8.16;89.98
71109;BME280;59614;51.012;-1.648;2022-12-29T11:24:05;99438.38;;;8.24;88.79
71109;BME280;59614;51.012;-1.648;2022-12-29T11:26:32;99440.91;;;8.29;88.13
71109;BME280;59614;51.012;-1.648;2022-12-29T11:31:29;99440.00;;;8.30;87.38
71109;BME280;59614;51.012;-1.648;2022-12-29T11:33:54;99445.75;;;8.47;85.94
71109;BME280;59614;51.012;-1.648;2022-12-29T11:36:20;99448.69;;;8.71;84.72
71109;BME280;59614;51.012;-1.648;2022-12-29T11:38:56;99445.94;;;8.77;85.78
71109;BME280;59614;51.012;-1.648;2022-12-29T11:41:30;99448.63;;;8.74;86.40
71109;BME280;59614;51.012;-1.648;2022-12-29T11:44:01;99455.16;;;8.58;86.82
71109;BME280;59614;51.012;-1.648;2022-12-29T11:46:29;99446.13;;;8.70;86.29
71109;BME280;59614;51.012;-1.648;2022-12-29T11:48:55;99441.78;;;8.67;85.27
71109;BME280;59614;51.012;-1.648;2022-12-29T11:51:24;99438.28;;;8.67;84.79
71109;BME280;59614;51.012;-1.648;2022-12-29T11:53:53;99436.91;;;8.88;85.41
71109;BME280;59614;51.012;-1.648;2022-12-29T11:56:22;99437.94;;;8.80;84.14
71109;BME280;59614;51.012;-1.648;2022-12-29T11:58:56;99438.63;;;8.89;84.58
71109;BME280;59614;51.012;-1.648;2022-12-29T12:01:29;99431.53;;;8.92;83.41
71109;BME280;59614;51.012;-1.648;2022-12-29T12:04:06;99437.88;;;8.84;82.25
71109;BME280;59614;51.012;-1.648;2022-12-29T12:06:33;99447.63;;;8.42;82.47
71109;BME280;59614;51.012;-1.648;2022-12-29T12:09:16;99452.94;;;8.39;83.16
71109;BME280;59614;51.012;-1.648;2022-12-29T12:11:44;99450.94;;;8.50;82.46
71109;BME280;59614;51.012;-1.648;2022-12-29T12:14:32;99455.41;;;8.85;82.49
71109;BME280;59614;51.012;-1.648;2022-12-29T12:16:58;99450.66;;;8.63;83.03
71109;BME280;59614;51.012;-1.648;2022-12-29T12:19:31;99461.31;;;8.93;83.33
71109;BME280;59614;51.012;-1.648;2022-12-29T12:27:33;99464.81;;;9.28;79.52
71109;BME280;59614;51.012;-1.648;2022-12-29T12:29:57;99452.47;;;8.95;78.68
71109;BME280;59614;51.012;-1.648;2022-12-29T12:32:40;99459.22;;;8.71;79.57
71109;BME280;59614;51.012;-1.648;2022-12-29T12:35:53;99457.56;;;9.03;78.22
71109;BME280;59614;51.012;-1.648;2022-12-29T12:38:06;99461.97;;;9.36;79.61
71109;BME280;59614;51.012;-1.648;2022-12-29T13:01:18;99458.56;;;8.98;78.29
71109;BME280;59614;51.012;-1.648;2022-12-29T13:24:26;99455.31;;;8.88;77.89
71109;BME280;59614;51.012;-1.648;2022-12-29T13:27:16;99464.03;;;8.90;75.91
71109;BME280;59614;51.012;-1.648;2022-12-29T13:29:46;99448.81;;;9.01;75.64
71109;BME280;59614;51.012;-1.648;2022-12-29T13:34:46;99454.94;;;8.67;75.28
71109;BME280;59614;51.012;-1.648;2022-12-29T13:37:16;99463.81;;;8.63;77.46
71109;BME280;59614;51.012;-1.648;2022-12-29T13:39:52;99454.47;;;8.49;76.09
71109;BME280;59614;51.012;-1.648;2022-12-29T13:42:19;99456.47;;;8.38;76.41
71109;BME280;59614;51.012;-1.648;2022-12-29T13:44:47;99458.13;;;8.42;77.88
71109;BME280;59614;51.012;-1.648;2022-12-29T13:49:39;99460.41;;;8.58;76.01
71109;BME280;59614;51.012;-1.648;2022-12-29T13:52:11;99468.88;;;8.31;76.92
71109;BME280;59614;51.012;-1.648;2022-12-29T14:05:00;99469.03;;;7.84;79.16
71109;BME280;59614;51.012;-1.648;2022-12-29T14:07:26;99477.75;;;7.85;78.53
71109;BME280;59614;51.012;-1.648;2022-12-29T14:09:52;99482.91;;;7.89;79.71
71109;BME280;59614;51.012;-1.648;2022-12-29T14:14:49;99492.53;;;7.91;80.65
71109;BME280;59614;51.012;-1.648;2022-12-29T14:17:16;99497.91;;;7.84;80.61
71109;BME280;59614;51.012;-1.648;2022-12-29T14:19:44;99501.31;;;7.89;81.38
71109;BME280;59614;51.012;-1.648;2022-12-29T14:22:10;99490.00;;;7.87;82.24
71109;BME280;59614;51.012;-1.648;2022-12-29T14:24:40;99496.38;;;7.74;81.35
71109;BME280;59614;51.012;-1.648;2022-12-29T14:34:46;99521.91;;;7.66;82.58
71109;BME280;59614;51.012;-1.648;2022-12-29T14:42:37;99524.59;;;7.63;82.13
71109;BME280;59614;51.012;-1.648;2022-12-29T14:45:22;99536.63;;;7.76;82.68
71109;BME280;59614;51.012;-1.648;2022-12-29T14:47:50;99535.91;;;7.66;83.79
71109;BME280;59614;51.012;-1.648;2022-12-29T14:57:46;99534.63;;;7.42;84.26
71109;BME280;59614;51.012;-1.648;2022-12-29T15:00:15;99553.19;;;7.30;84.55
71109;BME280;59614;51.012;-1.648;2022-12-29T15:02:42;99554.94;;;7.29;84.09
71109;BME280;59614;51.012;-1.648;2022-12-29T15:05:20;99547.94;;;7.30;84.12
71109;BME280;59614;51.012;-1.648;2022-12-29T15:07:48;99545.13;;;7.40;83.59
71109;BME280;59614;51.012;-1.648;2022-12-29T15:10:13;99552.31;;;7.31;83.78
71109;BME280;59614;51.012;-1.648;2022-12-29T15:12:45;99545.31;;;7.30;84.31
71109;BME280;59614;51.012;-1.648;2022-12-29T15:15:20;99556.66;;;7.32;84.55
71109;BME280;59614;51.012;-1.648;2022-12-29T15:17:46;99559.50;;;7.18;83.63
71109;BME280;59614;51.012;-1.648;2022-12-29T15:20:20;99562.22;;;7.13;85.08
71109;BME280;59614;51.012;-1.648;2022-12-29T15:22:47;99570.25;;;7.02;85.09
71109;BME280;59614;51.012;-1.648;2022-12-29T15:25:15;99578.94;;;7.06;85.20
71109;BME280;59614;51.012;-1.648;2022-12-29T15:27:42;99583.44;;;6.99;85.48
71109;BME280;59614;51.012;-1.648;2022-12-29T15:30:13;99580.81;;;6.99;85.60
71109;BME280;59614;51.012;-1.648;2022-12-29T15:32:40;99594.00;;;6.94;85.02
71109;BME280;59614;51.012;-1.648;2022-12-29T15:35:21;99597.53;;;6.90;85.65
71109;BME280;59614;51.012;-1.648;2022-12-29T15:37:47;99587.94;;;6.89;86.03